Open Full Screen Window  High Contrast Mode
Wind Gusting 00 knots
05
September 05, 2015 10:11 AM EDT
Weather Information
Wind Direction
  120 °
Wind Speed
  05 kt (6 mph)
Wind Gust
  00 kt (0 mph)
Altimeter
30.17 in
Visibility
10 SM
Temperature
25° C
77° F
Dewpoint
18° C
64° F
Humidity
65%
1hr Rain Fall
00.00 in.
24hr Rain Fall
00.00 in.
Sky Condition
Clear
VFR

METAR KI69 051411Z AUTO 12005KT 10SM CLR 25/18 A3017 RMK AO2 T02450176

*Background is not an actual portrayal of the airport.